Time;durP1;ratioP1;P1;durP2;ratioP2;P2;SDS_P1;SDS_P2;PMS_P1;PMS_P2;Temp;Humidity;BMP_temperature;BMP_pressure;BME280_temperature;BME280_humidity;BME280_pressure;Samples;Min_cycle;Max_cycle;Signal;HPM_P1;HPM_P2
2023/12/19 00:00:48;;;;;;;119.63;50.72;;;7.80;99.90;;;;;;7370010;19;20850;-69
2023/12/19 00:03:15;;;;;;;96.50;49.75;;;7.80;99.90;;;;;;7372796;19;20026;-69
2023/12/19 00:05:41;;;;;;;99.53;47.63;;;7.70;99.90;;;;;;7372967;19;20462;-68
2023/12/19 00:08:08;;;;;;;91.57;45.03;;;7.70;99.90;;;;;;7374119;19;20022;-62
2023/12/19 00:10:34;;;;;;;79.53;42.78;;;7.80;99.90;;;;;;7369175;19;20026;-63
2023/12/19 00:13:02;;;;;;;85.50;44.97;;;7.80;99.90;;;;;;7375049;19;20057;-62
2023/12/19 00:15:28;;;;;;;83.18;43.35;;;7.80;99.90;;;;;;7370716;19;20022;-62
2023/12/19 00:17:54;;;;;;;78.03;41.50;;;7.70;99.90;;;;;;7372763;19;20019;-62
2023/12/19 00:20:23;;;;;;;81.38;38.38;;;7.80;99.90;;;;;;7368518;19;20034;-62
2023/12/19 00:22:49;;;;;;;79.22;41.13;;;7.80;99.90;;;;;;7371711;19;20093;-63
2023/12/19 00:25:16;;;;;;;72.35;40.55;;;7.70;99.90;;;;;;7376656;19;20608;-63
2023/12/19 00:27:43;;;;;;;79.78;41.00;;;7.70;99.90;;;;;;7372111;19;20508;-62
2023/12/19 00:30:29;;;;;;;78.57;40.38;;;7.70;99.90;;;;;;7369462;19;20015;-67
2023/12/19 00:32:56;;;;;;;78.90;42.60;;;7.70;99.90;;;;;;7370297;19;20022;-68
2023/12/19 00:35:23;;;;;;;77.95;42.33;;;7.70;99.90;;;;;;7370412;19;20026;-68
2023/12/19 00:37:49;;;;;;;75.05;40.55;;;7.70;99.90;;;;;;7372985;19;20099;-67
2023/12/19 00:40:15;;;;;;;71.70;38.97;;;7.70;99.90;;;;;;7371913;19;20077;-69
2023/12/19 00:42:42;;;;;;;81.05;39.72;;;7.80;99.90;;;;;;7367766;19;20135;-63
2023/12/19 00:45:08;;;;;;;73.22;39.08;;;7.70;99.90;;;;;;7371412;19;20809;-63
2023/12/19 00:47:35;;;;;;;80.40;39.58;;;7.70;99.90;;;;;;7371422;19;20045;-68
2023/12/19 00:50:02;;;;;;;78.90;40.25;;;7.80;99.90;;;;;;7372299;19;20051;-68
2023/12/19 00:52:29;;;;;;;72.50;42.22;;;7.70;99.90;;;;;;7371346;19;20118;-68
2023/12/19 00:54:56;;;;;;;70.20;38.45;;;7.70;99.90;;;;;;7373027;19;20597;-67
2023/12/19 00:57:22;;;;;;;71.25;38.33;;;7.80;99.90;;;;;;7365968;19;20041;-67
2023/12/19 00:59:48;;;;;;;66.03;36.40;;;7.70;99.90;;;;;;7371423;19;20804;-67
2023/12/19 01:02:16;;;;;;;68.53;36.80;;;7.70;99.90;;;;;;7369952;19;20043;-67
2023/12/19 01:04:43;;;;;;;67.00;38.35;;;7.80;99.90;;;;;;7372710;19;20078;-67
2023/12/19 01:07:10;;;;;;;67.97;37.13;;;7.80;99.90;;;;;;7368602;19;20578;-67
2023/12/19 01:09:39;;;;;;;72.18;38.10;;;7.70;99.90;;;;;;7369058;19;20700;-68
2023/12/19 01:12:06;;;;;;;76.95;37.33;;;7.70;99.90;;;;;;7376002;19;20014;-67
2023/12/19 01:14:32;;;;;;;77.90;38.92;;;7.70;99.90;;;;;;7374781;19;20022;-62
2023/12/19 01:16:58;;;;;;;79.00;38.97;;;7.80;99.90;;;;;;7377165;19;20015;-63
2023/12/19 01:19:24;;;;;;;72.93;38.17;;;7.70;99.90;;;;;;7374806;19;20018;-62
2023/12/19 01:21:50;;;;;;;76.22;38.22;;;7.70;99.90;;;;;;7377262;19;20172;-63
2023/12/19 01:24:17;;;;;;;70.88;37.42;;;7.60;99.90;;;;;;7377355;19;20025;-67
2023/12/19 01:26:44;;;;;;;72.28;37.67;;;7.60;99.90;;;;;;7377031;19;20853;-67
2023/12/19 01:29:11;;;;;;;67.20;34.97;;;7.60;99.90;;;;;;7376701;19;20485;-67
2023/12/19 01:31:41;;;;;;;63.00;34.63;;;7.60;99.90;;;;;;7378095;19;20367;-68
2023/12/19 01:34:11;;;;;;;61.10;34.63;;;7.60;99.90;;;;;;7379674;19;20011;-68
2023/12/19 01:36:41;;;;;;;59.47;33.10;;;7.60;99.90;;;;;;7378002;19;20026;-64
2023/12/19 01:39:08;;;;;;;62.55;34.92;;;7.50;99.90;;;;;;7374544;19;20402;-63
2023/12/19 01:41:35;;;;;;;58.28;32.80;;;7.60;99.90;;;;;;7377554;19;20022;-62
2023/12/19 01:44:02;;;;;;;56.17;32.63;;;7.60;99.90;;;;;;7377359;19;20813;-67
2023/12/19 01:46:28;;;;;;;57.70;32.38;;;7.50;99.90;;;;;;7377070;19;20029;-68
2023/12/19 01:48:55;;;;;;;52.22;29.85;;;7.60;99.90;;;;;;7377620;19;20026;-68
2023/12/19 01:51:42;;;;;;;56.72;30.55;;;7.60;99.90;;;;;;7374774;19;20082;-69
2023/12/19 01:54:10;;;;;;;57.75;31.35;;;7.50;99.90;;;;;;7377685;19;20042;-68
2023/12/19 01:56:37;;;;;;;53.83;31.30;;;7.40;99.90;;;;;;7380673;19;20034;-68
2023/12/19 01:59:05;;;;;;;47.53;29.98;;;7.50;99.90;;;;;;7376510;19;20019;-68
2023/12/19 02:01:34;;;;;;;52.05;29.05;;;7.40;99.90;;;;;;7374770;19;20078;-67
2023/12/19 02:04:01;;;;;;;50.65;30.52;;;7.50;99.90;;;;;;7370577;19;20078;-67
2023/12/19 02:06:27;;;;;;;48.30;30.15;;;7.50;99.90;;;;;;7375554;19;20017;-63
2023/12/19 02:08:54;;;;;;;51.00;29.20;;;7.40;99.90;;;;;;7377219;19;20041;-63
2023/12/19 02:11:20;;;;;;;47.45;29.15;;;7.40;99.90;;;;;;7375093;19;20018;-63
2023/12/19 02:13:47;;;;;;;47.95;30.10;;;7.40;99.90;;;;;;7378442;19;20034;-63
2023/12/19 02:16:13;;;;;;;47.28;30.20;;;7.40;99.90;;;;;;7373084;19;20391;-63
2023/12/19 02:18:39;;;;;;;55.50;30.27;;;7.30;99.90;;;;;;7374564;19;20030;-62
2023/12/19 02:21:06;;;;;;;50.90;30.90;;;7.50;99.90;;;;;;7374890;19;20027;-62
2023/12/19 02:23:32;;;;;;;53.22;31.80;;;7.30;99.90;;;;;;7374846;19;20019;-63
2023/12/19 02:25:58;;;;;;;49.30;30.45;;;7.40;99.90;;;;;;7372554;19;20109;-62
2023/12/19 02:28:25;;;;;;;50.47;30.25;;;7.40;99.90;;;;;;7374662;19;20014;-62
2023/12/19 02:30:51;;;;;;;50.42;30.33;;;7.40;99.90;;;;;;7378114;19;20015;-67
2023/12/19 02:33:18;;;;;;;47.92;30.00;;;7.40;99.90;;;;;;7376680;19;20014;-67
2023/12/19 02:35:44;;;;;;;55.45;31.77;;;7.40;99.90;;;;;;7376675;19;20011;-67
2023/12/19 02:38:30;;;;;;;52.50;30.65;;;7.40;99.90;;;;;;7374277;19;20026;-67
2023/12/19 02:40:59;;;;;;;51.80;30.80;;;7.40;99.90;;;;;;7376884;19;20015;-63
2023/12/19 02:43:25;;;;;;;47.40;29.70;;;7.40;99.90;;;;;;7375137;19;20082;-63
2023/12/19 02:45:51;;;;;;;51.00;28.65;;;7.30;99.90;;;;;;7375569;19;20026;-63
2023/12/19 02:48:18;;;;;;;50.30;29.30;;;7.40;99.90;;;;;;7377916;19;20027;-63
2023/12/19 02:50:44;;;;;;;53.30;29.90;;;7.30;99.90;;;;;;7369915;19;20501;-63
2023/12/19 02:53:10;;;;;;;45.47;27.67;;;7.30;99.90;;;;;;7375783;19;20054;-63
2023/12/19 02:55:36;;;;;;;46.40;27.45;;;7.40;99.90;;;;;;7371272;19;20014;-63
2023/12/19 02:58:03;;;;;;;46.65;27.65;;;7.40;99.90;;;;;;7374829;19;20018;-62
2023/12/19 03:00:29;;;;;;;43.22;26.35;;;7.50;99.90;;;;;;7367877;19;20292;-62
2023/12/19 03:02:58;;;;;;;41.95;26.08;;;7.50;99.90;;;;;;7374759;19;20042;-62
2023/12/19 03:05:25;;;;;;;38.67;24.98;;;7.40;99.90;;;;;;7368967;19;20039;-62
2023/12/19 03:07:51;;;;;;;43.40;24.60;;;7.40;99.90;;;;;;7376213;19;20022;-62
2023/12/19 03:10:17;;;;;;;44.53;27.65;;;7.50;99.90;;;;;;7374332;19;20032;-62
2023/12/19 03:12:44;;;;;;;41.78;25.55;;;7.50;99.90;;;;;;7374087;19;20025;-62
2023/12/19 03:15:13;;;;;;;44.33;26.23;;;7.50;99.90;;;;;;7373981;19;20018;-66
2023/12/19 03:17:39;;;;;;;41.28;27.10;;;7.40;99.90;;;;;;7372218;19;20019;-62
2023/12/19 03:20:26;;;;;;;40.20;25.63;;;7.30;99.90;;;;;;7367787;19;20019;-62
2023/12/19 03:22:52;;;;;;;42.25;24.73;;;7.40;99.90;;;;;;7368781;19;20477;-61
2023/12/19 03:25:38;;;;;;;42.55;26.70;;;7.30;99.90;;;;;;7369369;19;20014;-66
2023/12/19 03:28:05;;;;;;;42.80;25.85;;;7.40;99.90;;;;;;7376562;19;20392;-67
2023/12/19 03:30:31;;;;;;;42.08;25.15;;;7.40;99.90;;;;;;7373966;19;20025;-66
2023/12/19 03:32:57;;;;;;;44.30;26.10;;;7.50;99.90;;;;;;7373593;19;20048;-62
2023/12/19 03:35:24;;;;;;;40.58;25.38;;;7.30;99.90;;;;;;7367809;19;21403;-66
2023/12/19 03:37:51;;;;;;;39.33;25.30;;;7.40;99.90;;;;;;7378512;19;20022;-66
2023/12/19 03:40:37;;;;;;;36.53;24.23;;;7.50;99.90;;;;;;7365790;19;20042;-66
2023/12/19 03:43:03;;;;;;;37.22;24.08;;;7.40;99.90;;;;;;7379433;19;20490;-66
2023/12/19 03:45:30;;;;;;;38.70;24.80;;;7.50;99.90;;;;;;7371491;19;20025;-66
2023/12/19 03:47:57;;;;;;;38.30;24.65;;;7.40;99.90;;;;;;7374974;19;20018;-62
2023/12/19 03:50:23;;;;;;;40.83;24.20;;;7.40;99.90;;;;;;7368697;19;20103;-62
2023/12/19 03:52:49;;;;;;;38.40;25.05;;;7.40;99.90;;;;;;7368781;19;20504;-62
2023/12/19 03:55:16;;;;;;;42.97;24.42;;;7.40;99.90;;;;;;7368069;19;20772;-64
2023/12/19 03:57:42;;;;;;;36.65;24.70;;;7.40;99.90;;;;;;7373453;19;20022;-62
2023/12/19 04:00:09;;;;;;;37.08;24.02;;;7.40;99.90;;;;;;7375765;19;20030;-66
2023/12/19 04:02:35;;;;;;;38.35;23.88;;;7.40;99.90;;;;;;7380008;19;20074;-66
2023/12/19 04:05:01;;;;;;;38.55;24.55;;;7.40;99.90;;;;;;7375012;19;20082;-62
2023/12/19 04:07:28;;;;;;;42.75;23.13;;;7.50;99.90;;;;;;7368029;19;20024;-62
2023/12/19 04:09:54;;;;;;;37.63;23.75;;;7.40;99.90;;;;;;7372205;19;20026;-62
2023/12/19 04:12:20;;;;;;;38.60;23.52;;;7.40;99.90;;;;;;7373933;19;20022;-66
2023/12/19 04:14:47;;;;;;;39.70;23.77;;;7.50;99.90;;;;;;7374438;19;20458;-66
2023/12/19 04:17:13;;;;;;;37.72;23.60;;;7.40;99.90;;;;;;7370440;19;20026;-62
2023/12/19 04:19:40;;;;;;;37.60;22.27;;;7.40;99.90;;;;;;7369537;19;20015;-62
2023/12/19 04:22:06;;;;;;;34.80;21.55;;;7.50;99.90;;;;;;7366336;19;20048;-62
2023/12/19 04:24:32;;;;;;;37.13;23.88;;;7.40;99.90;;;;;;7371067;19;20160;-62
2023/12/19 04:27:18;;;;;;;37.53;23.17;;;7.40;99.90;;;;;;7365111;19;20035;-62
2023/12/19 04:29:45;;;;;;;41.63;23.98;;;7.50;99.90;;;;;;7370641;19;20023;-62
2023/12/19 04:32:15;;;;;;;38.47;22.38;;;7.50;99.90;;;;;;7364415;19;20018;-62
2023/12/19 04:34:42;;;;;;;40.35;24.17;;;7.40;99.90;;;;;;7370124;19;20018;-66
2023/12/19 04:37:09;;;;;;;37.38;23.17;;;7.50;99.90;;;;;;7370317;19;20048;-62
2023/12/19 04:39:37;;;;;;;38.17;23.17;;;7.50;99.90;;;;;;7370814;19;20025;-66
2023/12/19 04:42:07;;;;;;;41.88;23.50;;;7.50;99.90;;;;;;7367048;19;20022;-62
2023/12/19 04:44:34;;;;;;;39.88;23.52;;;7.40;99.90;;;;;;7364824;19;20023;-62
2023/12/19 04:47:02;;;;;;;41.67;24.95;;;7.40;99.90;;;;;;7376914;19;20018;-62
2023/12/19 04:49:28;;;;;;;45.58;26.33;;;7.50;99.90;;;;;;7379713;19;20385;-66
2023/12/19 04:51:55;;;;;;;45.83;25.27;;;7.50;99.90;;;;;;7384343;19;20025;-66
2023/12/19 04:54:21;;;;;;;39.75;25.35;;;7.50;99.90;;;;;;7382645;19;20033;-66
2023/12/19 04:56:48;;;;;;;42.65;24.67;;;7.40;99.90;;;;;;7381240;19;20176;-66
2023/12/19 04:59:14;;;;;;;43.40;25.30;;;7.50;99.90;;;;;;7384557;19;20014;-67
2023/12/19 05:01:41;;;;;;;47.78;23.88;;;7.50;99.90;;;;;;7386078;19;20014;-67
2023/12/19 05:04:10;;;;;;;46.53;24.90;;;7.40;99.90;;;;;;7374037;19;20050;-65
2023/12/19 05:06:37;;;;;;;47.33;26.08;;;7.50;99.90;;;;;;7382508;19;20019;-66
2023/12/19 05:09:03;;;;;;;39.08;22.42;;;7.50;99.90;;;;;;7373726;19;20018;-62
2023/12/19 05:11:29;;;;;;;39.95;22.15;;;7.50;99.90;;;;;;7373553;19;20093;-62
2023/12/19 05:13:55;;;;;;;41.80;23.00;;;7.60;99.90;;;;;;7376618;19;20022;-65
2023/12/19 05:16:22;;;;;;;44.13;23.80;;;7.50;99.90;;;;;;7378901;19;20378;-65
2023/12/19 05:18:48;;;;;;;42.17;21.92;;;7.50;99.90;;;;;;7380777;19;20015;-65
2023/12/19 05:21:15;;;;;;;41.40;23.20;;;7.60;99.90;;;;;;7382692;19;20462;-66
2023/12/19 05:23:42;;;;;;;43.72;23.92;;;7.60;99.90;;;;;;7383989;19;20629;-66
2023/12/19 05:26:08;;;;;;;43.25;22.70;;;7.60;99.90;;;;;;7379129;19;20054;-63
2023/12/19 05:28:36;;;;;;;44.88;23.70;;;7.50;99.90;;;;;;7378038;19;20445;-62
2023/12/19 05:31:02;;;;;;;38.25;22.05;;;7.50;99.90;;;;;;7374968;19;20022;-62
2023/12/19 05:33:30;;;;;;;40.33;21.50;;;7.70;99.90;;;;;;7376024;19;20050;-62
2023/12/19 05:35:56;;;;;;;43.67;23.60;;;7.60;99.90;;;;;;7379042;19;20039;-62
2023/12/19 05:38:24;;;;;;;38.42;22.02;;;7.60;99.90;;;;;;7372959;19;20011;-62
2023/12/19 05:40:56;;;;;;;42.05;22.52;;;7.60;99.90;;;;;;7373321;19;20011;-65
2023/12/19 05:43:23;;;;;;;39.97;21.08;;;7.70;99.90;;;;;;7380770;19;20857;-65
2023/12/19 05:46:14;;;;;;;41.00;20.75;;;7.70;99.90;;;;;;7378068;19;20018;-65
2023/12/19 05:48:40;;;;;;;36.38;19.70;;;7.60;99.90;;;;;;7378796;19;20039;-65
2023/12/19 05:51:07;;;;;;;33.85;19.30;;;7.60;99.90;;;;;;7378331;19;20031;-65
2023/12/19 05:53:33;;;;;;;35.92;19.63;;;7.70;99.90;;;;;;7374581;19;20018;-65
2023/12/19 05:55:59;;;;;;;36.22;18.40;;;7.60;99.90;;;;;;7376895;19;20021;-65
2023/12/19 05:58:26;;;;;;;30.77;19.15;;;7.70;99.90;;;;;;7388913;19;20014;-61
2023/12/19 06:00:55;;;;;;;32.15;19.17;;;7.60;99.90;;;;;;7374525;19;20011;-63
2023/12/19 06:03:23;;;;;;;35.60;20.23;;;7.80;99.90;;;;;;7373981;19;20018;-62
2023/12/19 06:05:49;;;;;;;37.40;20.42;;;7.70;99.90;;;;;;7370336;19;20021;-63
2023/12/19 06:08:17;;;;;;;31.13;18.42;;;7.70;99.90;;;;;;7373068;19;20503;-63
2023/12/19 06:10:43;;;;;;;34.78;18.33;;;7.60;99.90;;;;;;7372807;19;20039;-65
2023/12/19 06:13:10;;;;;;;36.92;19.30;;;7.70;99.90;;;;;;7381415;19;20039;-66
2023/12/19 06:15:36;;;;;;;42.13;20.35;;;7.80;99.90;;;;;;7372346;19;20019;-63
2023/12/19 06:18:02;;;;;;;33.50;18.17;;;7.70;99.90;;;;;;7372020;19;20446;-64
2023/12/19 06:20:29;;;;;;;35.67;19.63;;;7.80;99.90;;;;;;7380139;19;20019;-67
2023/12/19 06:22:58;;;;;;;32.17;17.70;;;7.80;99.90;;;;;;7379593;19;20025;-67
2023/12/19 06:25:24;;;;;;;30.15;17.95;;;7.70;99.90;;;;;;7380170;19;20375;-67
2023/12/19 06:27:51;;;;;;;32.25;17.83;;;7.70;99.90;;;;;;7385125;19;20408;-67
2023/12/19 06:30:18;;;;;;;28.40;17.38;;;7.70;99.90;;;;;;7379509;19;20019;-66
2023/12/19 06:32:47;;;;;;;24.58;14.80;;;7.80;99.90;;;;;;7380211;19;20056;-67
2023/12/19 06:35:13;;;;;;;30.15;17.15;;;7.80;99.90;;;;;;7378120;19;20046;-66
2023/12/19 06:37:39;;;;;;;27.38;17.35;;;7.80;99.90;;;;;;7378427;19;20027;-67
2023/12/19 06:40:08;;;;;;;24.88;15.63;;;7.70;99.90;;;;;;7383060;19;20023;-66
2023/12/19 06:42:35;;;;;;;25.90;16.27;;;7.80;99.90;;;;;;7376051;19;20052;-66
2023/12/19 06:45:01;;;;;;;26.70;15.90;;;7.80;99.90;;;;;;7380984;19;20022;-66
2023/12/19 06:47:28;;;;;;;24.98;16.50;;;7.80;99.90;;;;;;7379784;19;20576;-67
2023/12/19 06:49:54;;;;;;;25.95;16.08;;;7.80;99.90;;;;;;7376742;19;20017;-64
2023/12/19 06:52:20;;;;;;;26.77;16.15;;;7.80;99.90;;;;;;7372530;19;20528;-65
2023/12/19 06:54:47;;;;;;;29.58;17.08;;;7.80;99.90;;;;;;7372876;19;20022;-64
2023/12/19 06:57:13;;;;;;;23.00;15.25;;;7.80;99.90;;;;;;7374187;19;20118;-65
2023/12/19 06:59:40;;;;;;;23.45;14.95;;;7.80;99.90;;;;;;7374578;19;20023;-65
2023/12/19 07:02:07;;;;;;;24.73;15.43;;;7.90;99.90;;;;;;7372998;19;20019;-64
2023/12/19 07:04:33;;;;;;;26.38;15.65;;;7.90;99.90;;;;;;7367610;19;20074;-65
2023/12/19 07:07:00;;;;;;;26.38;16.17;;;7.90;99.90;;;;;;7370542;19;20015;-65
2023/12/19 07:09:27;;;;;;;26.88;17.27;;;7.90;99.90;;;;;;7369316;19;20022;-64
2023/12/19 07:11:53;;;;;;;27.40;16.15;;;7.80;99.90;;;;;;7367776;19;20029;-64
2023/12/19 07:14:39;;;;;;;25.77;16.02;;;7.90;99.90;;;;;;7371706;19;20052;-63
2023/12/19 07:17:05;;;;;;;29.27;17.05;;;7.90;99.90;;;;;;7371860;19;20107;-63
2023/12/19 07:19:31;;;;;;;26.08;16.17;;;7.80;99.90;;;;;;7368647;19;20015;-65
2023/12/19 07:21:58;;;;;;;26.77;16.83;;;7.90;99.90;;;;;;7367166;19;21130;-63
2023/12/19 07:24:24;;;;;;;28.08;17.38;;;7.90;99.90;;;;;;7374577;19;20050;-63
2023/12/19 07:26:52;;;;;;;24.42;15.88;;;7.90;99.90;;;;;;7370563;19;20036;-65
2023/12/19 07:29:39;;;;;;;23.88;15.32;;;7.90;99.90;;;;;;7375094;19;20925;-66
2023/12/19 07:32:06;;;;;;;29.05;17.33;;;7.90;99.90;;;;;;7374109;19;20021;-66
2023/12/19 07:34:33;;;;;;;27.65;16.65;;;7.90;99.90;;;;;;7376852;19;20039;-64
2023/12/19 07:36:59;;;;;;;27.95;16.15;;;7.80;99.90;;;;;;7375981;19;20015;-66
2023/12/19 07:39:25;;;;;;;23.17;14.95;;;7.90;99.90;;;;;;7370263;19;20011;-66
2023/12/19 07:41:52;;;;;;;23.30;15.10;;;7.80;99.90;;;;;;7379697;19;20512;-64
2023/12/19 07:44:19;;;;;;;22.80;14.90;;;7.90;99.90;;;;;;7372980;19;20074;-65
2023/12/19 07:46:46;;;;;;;21.85;13.65;;;7.90;99.90;;;;;;7370692;19;20033;-66
2023/12/19 07:49:12;;;;;;;22.45;13.27;;;7.80;99.90;;;;;;7371438;19;20033;-67
2023/12/19 07:51:38;;;;;;;21.02;13.80;;;7.90;99.90;;;;;;7378353;19;20022;-66
2023/12/19 07:54:05;;;;;;;23.65;13.45;;;8.00;99.90;;;;;;7371755;19;20037;-67
2023/12/19 07:56:31;;;;;;;21.27;14.63;;;7.90;99.90;;;;;;7379411;19;20047;-65
2023/12/19 07:58:58;;;;;;;26.55;15.38;;;7.90;99.90;;;;;;7379947;19;20081;-66
2023/12/19 08:01:25;;;;;;;21.67;13.98;;;7.90;99.90;;;;;;7376654;19;20492;-66
2023/12/19 08:03:54;;;;;;;21.85;13.82;;;8.00;99.90;;;;;;7378927;19;20015;-68
2023/12/19 08:06:20;;;;;;;25.85;15.93;;;7.90;99.90;;;;;;7381308;19;20011;-67
2023/12/19 08:08:52;;;;;;;22.98;14.18;;;8.00;99.90;;;;;;7385168;19;20019;-67
2023/12/19 08:11:19;;;;;;;25.65;14.02;;;8.10;99.90;;;;;;7373321;19;20022;-66
2023/12/19 08:13:48;;;;;;;20.80;14.27;;;8.00;99.90;;;;;;7380007;19;20704;-66
2023/12/19 08:16:14;;;;;;;23.20;14.20;;;8.00;99.90;;;;;;7379930;19;20018;-66
2023/12/19 08:18:40;;;;;;;24.80;14.45;;;8.10;99.90;;;;;;7381125;19;20018;-67
2023/12/19 08:21:08;;;;;;;23.08;14.25;;;8.10;99.90;;;;;;7380319;19;20022;-66
2023/12/19 08:23:35;;;;;;;24.88;13.20;;;8.10;99.90;;;;;;7381983;19;20018;-67
2023/12/19 08:26:07;;;;;;;19.60;12.98;;;8.20;99.90;;;;;;7382010;19;20529;-67
2023/12/19 08:28:33;;;;;;;23.27;14.32;;;8.10;99.90;;;;;;7378916;19;20118;-67
2023/12/19 08:31:00;;;;;;;19.92;13.60;;;8.10;99.90;;;;;;7376399;19;20478;-67
2023/12/19 08:33:26;;;;;;;22.10;14.27;;;8.10;99.90;;;;;;7377997;19;20022;-67
2023/12/19 08:35:52;;;;;;;20.05;12.55;;;8.20;99.90;;;;;;7378787;19;20018;-67
2023/12/19 08:38:19;;;;;;;20.23;12.48;;;8.20;99.90;;;;;;7377773;19;20019;-68
2023/12/19 08:40:46;;;;;;;24.55;13.57;;;8.20;99.90;;;;;;7366899;19;20018;-66
2023/12/19 08:43:13;;;;;;;22.48;13.80;;;8.20;99.90;;;;;;7369574;19;20037;-67
2023/12/19 08:45:39;;;;;;;19.20;11.65;;;8.20;99.90;;;;;;7371628;19;20051;-67
2023/12/19 08:48:07;;;;;;;24.95;13.63;;;8.20;99.90;;;;;;7375837;19;20192;-67
2023/12/19 08:50:35;;;;;;;20.95;13.35;;;8.30;99.90;;;;;;7370990;19;20021;-67
2023/12/19 08:53:01;;;;;;;20.75;12.30;;;8.30;99.90;;;;;;7371976;19;20094;-67
2023/12/19 08:55:27;;;;;;;23.25;12.60;;;8.40;99.90;;;;;;7366293;19;20971;-66
2023/12/19 08:57:53;;;;;;;19.08;12.63;;;8.30;99.90;;;;;;7362972;19;20090;-67
2023/12/19 09:00:21;;;;;;;20.95;12.13;;;8.30;99.90;;;;;;7361728;19;20607;-67
2023/12/19 09:02:48;;;;;;;19.67;11.27;;;8.40;99.90;;;;;;7370534;19;20010;-68
2023/12/19 09:05:17;;;;;;;21.90;13.43;;;8.30;99.90;;;;;;7373300;19;20078;-68
2023/12/19 09:07:46;;;;;;;19.25;12.55;;;8.40;99.90;;;;;;7369748;19;20033;-68
2023/12/19 09:10:17;;;;;;;22.08;14.07;;;8.30;99.90;;;;;;7374214;19;20023;-67
2023/12/19 09:12:43;;;;;;;23.50;14.45;;;8.50;99.90;;;;;;7361871;19;20794;-68
2023/12/19 09:15:10;;;;;;;22.23;14.55;;;8.50;99.90;;;;;;7363333;19;20018;-68
2023/12/19 09:17:36;;;;;;;26.70;15.02;;;8.40;99.90;;;;;;7361194;19;20077;-73
2023/12/19 09:20:05;;;;;;;25.98;15.60;;;8.60;99.90;;;;;;7367502;19;20045;-72
2023/12/19 09:22:32;;;;;;;28.63;15.77;;;8.60;99.90;;;;;;7363389;19;20515;-72
2023/12/19 09:24:59;;;;;;;26.98;15.90;;;8.60;99.90;;;;;;7368100;19;20026;-72
2023/12/19 09:27:26;;;;;;;26.77;16.40;;;8.60;99.90;;;;;;7367733;19;20818;-72
2023/12/19 09:29:53;;;;;;;29.65;17.73;;;8.60;99.90;;;;;;7368556;19;20816;-72
2023/12/19 09:32:21;;;;;;;29.58;17.88;;;8.70;99.90;;;;;;7367634;19;20809;-73
2023/12/19 09:34:47;;;;;;;25.73;17.17;;;8.80;99.90;;;;;;7373744;19;20094;-73
2023/12/19 09:37:13;;;;;;;26.88;16.80;;;8.80;99.90;;;;;;7371972;19;20027;-68
2023/12/19 09:39:40;;;;;;;30.73;19.83;;;8.90;99.90;;;;;;7371498;19;20025;-67
2023/12/19 09:42:06;;;;;;;38.25;19.83;;;8.80;99.90;;;;;;7372543;19;20424;-66
2023/12/19 09:44:33;;;;;;;36.33;20.77;;;8.90;99.90;;;;;;7373272;19;20340;-69
2023/12/19 09:47:01;;;;;;;31.80;20.77;;;8.90;99.90;;;;;;7367846;19;20510;-68
2023/12/19 09:49:32;;;;;;;34.28;21.42;;;8.90;99.90;;;;;;7375097;19;20114;-68
2023/12/19 09:51:59;;;;;;;34.95;21.15;;;8.90;99.90;;;;;;7367962;19;20064;-68
2023/12/19 09:54:26;;;;;;;31.83;19.63;;;8.90;99.90;;;;;;7375225;19;20022;-67
2023/12/19 09:56:52;;;;;;;33.78;20.73;;;8.90;99.90;;;;;;7366046;19;20093;-68
2023/12/19 09:59:22;;;;;;;34.10;20.92;;;8.90;99.90;;;;;;7373325;19;20098;-67
2023/12/19 10:01:49;;;;;;;30.42;21.25;;;8.90;99.90;;;;;;7371915;19;20022;-68
2023/12/19 10:04:17;;;;;;;30.25;20.40;;;8.80;99.90;;;;;;7367198;19;20014;-68
2023/12/19 10:07:06;;;;;;;33.60;21.58;;;9.00;99.90;;;;;;7370903;19;20356;-67
2023/12/19 10:09:32;;;;;;;35.13;21.52;;;8.90;99.90;;;;;;7369188;19;20407;-67
2023/12/19 10:12:09;;;;;;;33.47;21.52;;;9.00;99.90;;;;;;7367444;19;20492;-68
2023/12/19 10:14:36;;;;;;;30.88;20.67;;;9.00;99.90;;;;;;7374402;19;20022;-68
2023/12/19 10:17:04;;;;;;;29.70;21.33;;;8.90;99.90;;;;;;7368078;19;20006;-66
2023/12/19 10:19:50;;;;;;;29.33;20.00;;;8.90;99.90;;;;;;7369043;19;20049;-67
2023/12/19 10:22:19;;;;;;;31.98;22.63;;;9.00;99.90;;;;;;7363381;19;20014;-67
2023/12/19 10:24:46;;;;;;;31.65;21.42;;;9.00;99.90;;;;;;7369399;19;20023;-67
2023/12/19 10:27:12;;;;;;;29.85;20.02;;;8.90;99.90;;;;;;7367175;19;20024;-67
2023/12/19 10:29:40;;;;;;;30.55;20.50;;;8.90;99.90;;;;;;7367208;19;20019;-68
2023/12/19 10:32:14;;;;;;;27.88;20.92;;;9.00;99.90;;;;;;7371906;19;21303;-68
2023/12/19 10:34:41;;;;;;;28.45;18.95;;;8.90;99.90;;;;;;7370668;19;20014;-68
2023/12/19 10:37:20;;;;;;;27.55;20.30;;;9.00;99.90;;;;;;7366543;19;20059;-69
2023/12/19 10:39:50;;;;;;;29.77;18.88;;;8.90;99.90;;;;;;7363406;19;20015;-68
2023/12/19 10:42:19;;;;;;;30.67;20.35;;;9.00;99.90;;;;;;7371066;19;20035;-68
2023/12/19 10:44:48;;;;;;;26.23;19.25;;;9.00;99.90;;;;;;7363979;19;20040;-68
2023/12/19 10:47:14;;;;;;;26.45;19.30;;;9.00;99.90;;;;;;7367590;19;20097;-68
2023/12/19 10:49:41;;;;;;;28.20;20.08;;;8.90;99.90;;;;;;7361089;19;20737;-68
2023/12/19 10:52:10;;;;;;;25.48;18.63;;;8.90;99.90;;;;;;7370910;19;20458;-68
2023/12/19 10:54:37;;;;;;;24.77;17.80;;;8.90;99.90;;;;;;7362437;19;20010;-68
2023/12/19 10:57:16;;;;;;;29.85;18.17;;;9.00;99.90;;;;;;7367075;19;20023;-67
2023/12/19 10:59:58;;;;;;;25.45;17.58;;;9.00;99.90;;;;;;7366458;19;20105;-68
2023/12/19 11:02:25;;;;;;;;;;;8.90;99.90;;;;;;7375522;19;20089;-68
2023/12/19 11:05:03;;;;;;;23.48;17.10;;;9.00;99.90;;;;;;7361179;19;19998;-68
2023/12/19 11:07:32;;;;;;;20.15;16.27;;;8.90;99.90;;;;;;7371255;19;20030;-68
2023/12/19 11:10:06;;;;;;;21.80;16.98;;;9.00;99.90;;;;;;7363402;19;20015;-69
2023/12/19 11:12:33;;;;;;;22.58;16.83;;;9.00;99.90;;;;;;7369822;19;20082;-69
2023/12/19 11:15:00;;;;;;;23.40;16.88;;;9.00;99.90;;;;;;7365345;19;20022;-69
2023/12/19 11:17:33;;;;;;;23.10;16.75;;;8.90;99.90;;;;;;7370670;19;20982;-69
2023/12/19 11:20:14;;;;;;;20.70;16.05;;;8.90;99.90;;;;;;7366587;19;20025;-68
2023/12/19 11:23:01;;;;;;;22.05;16.85;;;8.90;99.90;;;;;;7369231;19;20034;-69
2023/12/19 11:25:48;;;;;;;21.80;16.70;;;9.00;99.90;;;;;;7362181;19;20014;-68
2023/12/19 11:28:14;;;;;;;19.50;15.88;;;8.90;99.90;;;;;;7371581;19;20022;-68
2023/12/19 11:30:44;;;;;;;22.70;16.98;;;9.00;99.90;;;;;;7365366;19;20021;-68
2023/12/19 11:33:26;;;;;;;20.85;17.15;;;9.00;99.90;;;;;;7368022;19;20015;-68
2023/12/19 11:35:52;;;;;;;23.30;17.60;;;9.10;99.90;;;;;;7363624;19;20014;-69
2023/12/19 11:38:27;;;;;;;24.58;18.55;;;9.00;99.90;;;;;;7370160;19;20019;-69
2023/12/19 11:40:55;;;;;;;23.92;17.88;;;9.00;99.90;;;;;;7370976;19;20015;-68
2023/12/19 11:43:28;;;;;;;24.02;17.17;;;9.00;99.90;;;;;;7370797;19;20483;-68
2023/12/19 11:45:56;;;;;;;23.30;17.88;;;8.90;99.90;;;;;;7364466;19;20038;-69
2023/12/19 11:48:40;;;;;;;22.05;17.73;;;8.90;99.90;;;;;;7375787;19;20052;-70
2023/12/19 11:51:08;;;;;;;23.83;17.65;;;9.00;99.90;;;;;;7368396;19;20343;-68
2023/12/19 11:53:38;;;;;;;23.77;18.48;;;9.00;99.90;;;;;;7366150;19;20078;-69
2023/12/19 11:56:08;;;;;;;24.98;19.55;;;9.00;99.90;;;;;;7363856;19;20030;-68
2023/12/19 11:58:35;;;;;;;23.83;19.13;;;9.00;99.90;;;;;;7367880;19;20018;-69
2023/12/19 12:01:04;;;;;;;22.85;18.58;;;9.00;99.90;;;;;;7366216;19;20517;-70
2023/12/19 12:03:30;;;;;;;23.90;19.00;;;9.10;99.90;;;;;;7370753;19;20019;-70
2023/12/19 12:05:59;;;;;;;25.55;18.50;;;9.00;99.90;;;;;;7363484;19;20027;-70
2023/12/19 12:08:26;;;;;;;22.15;17.58;;;9.10;99.90;;;;;;7367303;19;20022;-70
2023/12/19 12:11:04;;;;;;;24.67;19.30;;;9.00;99.90;;;;;;7365397;19;20021;-70
2023/12/19 12:13:35;;;;;;;22.08;17.75;;;9.00;99.90;;;;;;7367747;19;20021;-69
2023/12/19 12:16:02;;;;;;;21.70;18.23;;;9.00;99.90;;;;;;7365837;19;20170;-68
2023/12/19 12:18:32;;;;;;;22.70;16.90;;;9.00;99.90;;;;;;7368678;19;20510;-68
2023/12/19 12:21:10;;;;;;;20.63;17.00;;;9.00;99.90;;;;;;7363413;19;20081;-69
2023/12/19 12:23:36;;;;;;;22.55;17.70;;;9.10;99.90;;;;;;7365545;19;20049;-68
2023/12/19 12:26:05;;;;;;;22.33;16.98;;;9.10;99.90;;;;;;7369538;19;20031;-68
2023/12/19 12:28:33;;;;;;;22.45;17.80;;;9.10;99.90;;;;;;7363192;19;20762;-68
2023/12/19 12:31:01;;;;;;;20.27;15.18;;;9.10;99.90;;;;;;7366126;19;20039;-68
2023/12/19 12:33:28;;;;;;;21.42;16.40;;;9.10;99.90;;;;;;7367122;19;20485;-67
2023/12/19 12:35:55;;;;;;;21.92;16.38;;;9.10;99.90;;;;;;7369922;19;20121;-68
2023/12/19 12:38:24;;;;;;;18.38;14.77;;;9.20;99.90;;;;;;7364047;19;20018;-69
2023/12/19 12:40:59;;;;;;;20.88;15.30;;;9.20;99.90;;;;;;7368324;19;20032;-69
2023/12/19 12:43:27;;;;;;;22.00;15.40;;;9.10;99.90;;;;;;7365209;19;20470;-69